Winstonville, MS

7:27 AM CDT on April 21, 2015 (GMT -0500)
Cleveland Municipal | | Change Station
CLOSE
Current Station
Airport
Location: Cleveland Municipal Airport,
Elevation: 138 ft
Nearby Weather Stations
Active Advisory: Flood Advisory

Elev 138 ft 33.76 °N, 90.76 °W | Updated 12 minutes ago

Clear
Clear
49 °F
Feels Like 49 °F
N
0
Wind Variable Wind from North

Today
High -- | Low -- °F
--% Chance of Precip.
Yesterday
High -- | Low -- °F
Precip. -- in
6:25 AM 7:38 PM
Waxing Crescent, 10% visible
Pressure 30.05 in
Visibility 10.0 miles
Clouds Clear
Dew Point 49 °F
Humidity 98%
Rainfall 0.00 in
Snow Depth Not available.
UV 0 out of 12
Pollen 9.90 out of 12
Air Quality Not available.
Flu Activity Sporadic
METAR KRNV 211215Z AUTO 00000KT 10SM CLR 10/09 A3005 RMK AO2 T00960093

More Conditions Fewer Conditions

Pressure 30.05 in
Visibility 10.0 miles
Clouds Clear
Dew Point 49 °F
Humidity 98%
Rainfall 0.00 in
Snow Depth Not available.
UV 0 out of 12
Pollen 9.90 out of 12
Air Quality Not available.
Flu Activity Sporadic
METAR KRNV 211215Z AUTO 00000KT 10SM CLR 10/09 A3005 RMK AO2 T00960093

More Conditions Fewer Conditions

10-Day Weather Forecast

Almanac

Astronomy

Apr. 21, 2015 Rise Set
Actual Time
Civil Twilight
Nautical Twilight
Astronomical Twilight
Moon
Length of Visible Light
Length of Day
Tomorrow will be .
, % of the Moon is Illuminated

Today's Extremes

State Highs State Lows

Community

WunderPhotos

Upload Photos

1,815,351 photos uploaded!

WunderBlogs® & News

Nearby

Air Quality

  Air Quality AQ Index Pollutant
Not available.

Snow Depth

Station Depth Elevation

Earthquake Activity

City Distance Mag. Time & Date
Minimum magnitude displayed is 2.5.

Coastal Water Temperatures

Place Temperature

Stations

Nearby Weather Stations

Station Location Temp. Windchill Dew Point Humidity Wind Precip. Elev Updated Type
                   
Flood Advisory
Statement as of 9:00 PM CDT on April 20, 2015

The Flood Advisory continues for
the Mississippi River near Arkansas City.
* Until Tuesday evening.
* At 8:00 PM Monday the stage was 32.4 feet.
* Flood stage is 37.0 feet.
* Forecast... the river will rise to near 33.0 feet by Friday April
24.



              Flood observed forecast 7 am crest
location stg stg day time Tue Wed Thu crest time date

Lower Mississippi River
Arkansas City 37 32.4 Mon 08 PM 32.4 32.6 32.8 M M




Lat... Lon 3340 9128 3357 9128 3413 9108 3412 9066
      3358 9106 3340 9105